F/V Adeline Stephen — FGUF — position and weather

sailwx.info

Track history (hours):
 
Tides and Currents Weather Stations Pressure Air Temp Water Temp Dewpoint Dewpoint Depression Visibility Wind Speed Wind Dir Waves Ship Positions

F/V Adeline Stephen

Last reported at 2017-Nov-18 08:24 UTC. Time now 2017-Nov-22 01:59 UTC.
Position N 47°44' W 003°22'.

Length 18 m.

Type: Fishing. MMSI: 228929000.

Date/timePositionNaut miles runAvg speedWind from/ knotsBaromVisibWave heightAir tempDewpointWater temp
2017-Nov-18 08:24N 47°44' W 003°22'3 6.5
2017-Nov-18 08:00N 47°41' W 003°22'5 9.4
2017-Nov-18 07:30N 47°36' W 003°22'5 9.2
2017-Nov-18 07:00N 47°32' W 003°21'5 9.3
2017-Nov-18 06:30N 47°27' W 003°20'4 9.0
2017-Nov-18 06:00N 47°23' W 003°19'6 9.2
2017-Nov-18 05:20N 47°17' W 003°18'4 8.8
2017-Nov-18 04:54N 47°13' W 003°18'34 1.2
2017-Nov-17 01:31N 46°39' W 003°14'0 3.5
2017-Nov-17 01:27N 46°39' W 003°14'12 0.8
2017-Nov-16 11:04N 46°29' W 003°07'0 3.5
2017-Nov-16 10:59N 46°28' W 003°07'1 2.7
2017-Nov-16 10:29N 46°29' W 003°09'30 5.5
2017-Nov-16 05:06N 46°58' W 003°16'5 9.1
2017-Nov-16 04:33N 47°03' W 003°17'2 9.1
2017-Nov-16 04:22N 47°05' W 003°17'4 9.1
2017-Nov-16 03:55N 47°09' W 003°18'5 9.2
2017-Nov-16 03:23N 47°14' W 003°19'4 9.4
2017-Nov-16 03:00N 47°17' W 003°19'5 9.3
2017-Nov-16 02:30N 47°22' W 003°20'5 9.2
2017-Nov-16 02:00N 47°26' W 003°21'5 9.1
2017-Nov-16 01:30N 47°31' W 003°21'5 9.0
2017-Nov-16 01:00N 47°36' W 003°22'4 9.0
2017-Nov-16 00:30N 47°40' W 003°23'4 7.4
2017-Nov-16 00:00N 47°44' W 003°22'0 0.0
2017-Nov-15 23:30N 47°44' W 003°22'0 0.3
2017-Nov-15 23:00N 47°44' W 003°22'0 0.0
2017-Nov-15 22:30N 47°44' W 003°22'0 0.0
2017-Nov-15 22:00N 47°44' W 003°22'0 0.0
2017-Nov-15 21:30N 47°44' W 003°22'4 8.5
2017-Nov-15 21:00N 47°40' W 003°22'5 9.8
2017-Nov-15 20:30N 47°35' W 003°22'5 9.7
2017-Nov-15 20:00N 47°30' W 003°21'5 9.4
2017-Nov-15 19:30N 47°25' W 003°20'9 9.4
2017-Nov-15 18:33N 47°16' W 003°18'47 6.4
2017-Nov-15 11:12N 46°30' W 003°10'3 0.5
2017-Nov-15 05:26N 46°32' W 003°13'  
2017-Nov-12 03:57N 47°16' W 003°18'4 9.4
2017-Nov-12 03:30N 47°20' W 003°19'5 9.5
2017-Nov-12 03:00N 47°25' W 003°20'5 9.6
2017-Nov-12 02:30N 47°30' W 003°21'5 9.3
2017-Nov-12 02:00N 47°34' W 003°22'5 9.2
2017-Nov-12 01:30N 47°39' W 003°22'5 9.3
2017-Nov-12 01:00N 47°44' W 003°22'0 0.1
2017-Nov-12 00:30N 47°44' W 003°22'0 0.4
2017-Nov-12 00:00N 47°44' W 003°22'0 0.0
2017-Nov-11 23:30N 47°44' W 003°22'0 0.0
2017-Nov-11 23:00N 47°44' W 003°22'0 0.0
2017-Nov-11 22:30N 47°44' W 003°22'0 0.0
2017-Nov-11 22:00N 47°44' W 003°22'0 0.0
2017-Nov-11 21:30N 47°44' W 003°22'0 0.7
2017-Nov-11 21:00N 47°43' W 003°22'4 8.3
2017-Nov-11 20:30N 47°39' W 003°21'4 8.4
2017-Nov-11 20:00N 47°36' W 003°18'4 8.4
2017-Nov-11 19:30N 47°32' W 003°15'4 8.0
2017-Nov-11 19:00N 47°29' W 003°12'4 7.5
2017-Nov-11 18:30N 47°26' W 003°09'15 6.0
2017-Nov-11 16:02N 47°14' W 002°55'0 3.3
2017-Nov-11 16:00N 47°14' W 002°56'  
Track history (hours):
 
Tides and Currents Weather Stations Pressure Air Temp Water Temp Dewpoint Dewpoint Depression Visibility Wind Speed Wind Dir Waves Ship Positions

F/V Adeline Stephen

Last reported at 2017-Nov-18 08:24 UTC. Time now 2017-Nov-22 01:59 UTC.
Position N 47°44' W 003°22'.

Length 18 m.

Type: Fishing. MMSI: 228929000.

Date/timePositionNaut miles runAvg speedWind from/ knotsBaromVisibWave heightAir tempDewpointWater temp
2017-Nov-18 08:24N 47°44' W 003°22'3 6.5
2017-Nov-18 08:00N 47°41' W 003°22'5 9.4
2017-Nov-18 07:30N 47°36' W 003°22'5 9.2
2017-Nov-18 07:00N 47°32' W 003°21'5 9.3
2017-Nov-18 06:30N 47°27' W 003°20'4 9.0
2017-Nov-18 06:00N 47°23' W 003°19'6 9.2
2017-Nov-18 05:20N 47°17' W 003°18'4 8.8
2017-Nov-18 04:54N 47°13' W 003°18'34 1.2
2017-Nov-17 01:31N 46°39' W 003°14'0 3.5
2017-Nov-17 01:27N 46°39' W 003°14'12 0.8
2017-Nov-16 11:04N 46°29' W 003°07'0 3.5
2017-Nov-16 10:59N 46°28' W 003°07'1 2.7
2017-Nov-16 10:29N 46°29' W 003°09'30 5.5
2017-Nov-16 05:06N 46°58' W 003°16'5 9.1
2017-Nov-16 04:33N 47°03' W 003°17'2 9.1
2017-Nov-16 04:22N 47°05' W 003°17'4 9.1
2017-Nov-16 03:55N 47°09' W 003°18'5 9.2
2017-Nov-16 03:23N 47°14' W 003°19'4 9.4
2017-Nov-16 03:00N 47°17' W 003°19'5 9.3
2017-Nov-16 02:30N 47°22' W 003°20'5 9.2
2017-Nov-16 02:00N 47°26' W 003°21'5 9.1
2017-Nov-16 01:30N 47°31' W 003°21'5 9.0
2017-Nov-16 01:00N 47°36' W 003°22'4 9.0
2017-Nov-16 00:30N 47°40' W 003°23'4 7.4
2017-Nov-16 00:00N 47°44' W 003°22'0 0.0
2017-Nov-15 23:30N 47°44' W 003°22'0 0.3
2017-Nov-15 23:00N 47°44' W 003°22'0 0.0
2017-Nov-15 22:30N 47°44' W 003°22'0 0.0
2017-Nov-15 22:00N 47°44' W 003°22'0 0.0
2017-Nov-15 21:30N 47°44' W 003°22'4 8.5
2017-Nov-15 21:00N 47°40' W 003°22'5 9.8
2017-Nov-15 20:30N 47°35' W 003°22'5 9.7
2017-Nov-15 20:00N 47°30' W 003°21'5 9.4
2017-Nov-15 19:30N 47°25' W 003°20'9 9.4
2017-Nov-15 18:33N 47°16' W 003°18'47 6.4
2017-Nov-15 11:12N 46°30' W 003°10'3 0.5
2017-Nov-15 05:26N 46°32' W 003°13'  
2017-Nov-12 03:57N 47°16' W 003°18'4 9.4
2017-Nov-12 03:30N 47°20' W 003°19'5 9.5
2017-Nov-12 03:00N 47°25' W 003°20'5 9.6
2017-Nov-12 02:30N 47°30' W 003°21'5 9.3
2017-Nov-12 02:00N 47°34' W 003°22'5 9.2
2017-Nov-12 01:30N 47°39' W 003°22'5 9.3
2017-Nov-12 01:00N 47°44' W 003°22'0 0.1
2017-Nov-12 00:30N 47°44' W 003°22'0 0.4
2017-Nov-12 00:00N 47°44' W 003°22'0 0.0
2017-Nov-11 23:30N 47°44' W 003°22'0 0.0
2017-Nov-11 23:00N 47°44' W 003°22'0 0.0
2017-Nov-11 22:30N 47°44' W 003°22'0 0.0
2017-Nov-11 22:00N 47°44' W 003°22'0 0.0
2017-Nov-11 21:30N 47°44' W 003°22'0 0.7
2017-Nov-11 21:00N 47°43' W 003°22'4 8.3
2017-Nov-11 20:30N 47°39' W 003°21'4 8.4
2017-Nov-11 20:00N 47°36' W 003°18'4 8.4
2017-Nov-11 19:30N 47°32' W 003°15'4 8.0
2017-Nov-11 19:00N 47°29' W 003°12'4 7.5
2017-Nov-11 18:30N 47°26' W 003°09'15 6.0
2017-Nov-11 16:02N 47°14' W 002°55'0 3.3
2017-Nov-11 16:00N 47°14' W 002°56'  

Dump ship's entire track history